Latest Weather Observations for Tidbinbilla

IDN60801

Issued at 3:32 pm EST Saturday 22 June 2024 (issued every 10 minutes, with the page automatically refreshed every 10 minutes)

About weather observations | Map of weather stations | Latest weather observations for NSW | Other Formats
Station Details ID: 250069 Name: TIDBINBILLA (PCS) Lat: -35.46 Lon: 148.94 Height: 883.0 m

Portable automatic weather stations (PAWS) are operated by other organisations, such as Fire and Emergency Services, and are included here by agreement. Portable stations may be deployed to a location for a short period and their location may be subject to change without notice. Wind observations from these stations are provided from heights of either three (3) or ten (10) metres above ground level (AGL).

Data from the previous 72 hours. | See also: Recent months for locations in New South Wales
Date/Time
EST
Temp
°C
App
Temp
°C
Dew
Point
°C
Rel
Hum
%
Delta-T
°C
Wind Press
QNH
hPa
Press
MSL
hPa
Rain since
9am
mm
Dir  Spd
km/h
Gust
km/h
Spd
kts
Gust
kts
22/03:20pm 8.7 4.5 1.5 60 3.1 SE 13 17 7 9 1027.1 - 0.2
22/03:10pm 9.8 6.4 2.1 58 3.4 SE 9 13 5 7 1027.1 - 0.2
22/03:00pm 10.9 7.1 1.7 53 4.1 ESE 11 15 6 8 1027.0 - 0.2
22/02:50pm 11.2 8.2 1.9 52 4.2 SE 7 11 4 6 1027.0 - 0.2
22/02:40pm 10.7 7.7 2.1 55 3.9 SE 7 11 4 6 1027.0 - 0.2
22/02:30pm 11.1 8.0 1.6 52 4.2 ESE 7 13 4 7 1027.0 - 0.2
22/02:10pm 10.9 7.0 1.2 51 4.3 S 11 19 6 10 1026.9 - 0.2
22/02:00pm 10.9 6.3 1.5 52 4.2 S 15 22 8 12 1026.9 - 0.2
22/01:50pm 11.3 7.9 1.6 51 4.3 SSE 9 17 5 9 1026.9 - 0.2
22/01:40pm 11.8 9.0 1.8 50 4.5 SSE 6 9 3 5 1027.1 - 0.2
22/01:30pm 11.7 8.6 1.5 49 4.6 SSE 7 17 4 9 1027.1 - 0.2
22/01:20pm 11.2 7.8 1.7 52 4.2 SSE 9 15 5 8 1027.2 - 0.2
22/01:10pm 10.8 6.2 1.5 52 4.1 SSE 15 22 8 12 1027.3 - 0.2
22/01:00pm 10.7 6.1 1.4 52 4.1 S 15 19 8 10 1027.2 - 0.2
22/12:50pm 11.4 7.1 1.2 49 4.5 S 13 19 7 10 1027.4 - 0.2
22/12:40pm 12.0 9.0 1.8 49 4.6 SSE 7 11 4 6 1027.6 - 0.2
22/12:30pm 12.2 8.8 2.0 49 4.6 N 9 13 5 7 1027.7 - 0.2
22/12:20pm 11.1 8.6 1.4 51 4.3 ESE 4 9 2 5 1027.8 - 0.2
22/12:10pm 10.3 7.2 1.6 55 3.8 SSE 7 9 4 5 1027.8 - 0.2
22/12:00pm 9.9 6.1 1.5 56 3.7 SE 11 15 6 8 1027.9 - 0.2
22/11:30am 10.0 6.6 1.8 56 3.6 SSE 9 11 5 6 1028.2 - 0.2
22/11:20am 9.6 5.7 1.1 55 3.7 SSE 11 22 6 12 1028.2 - 0.2
22/11:10am 9.8 5.1 1.1 54 3.8 SSE 15 19 8 10 1028.3 - 0.0
22/11:00am 10.2 6.8 1.8 56 3.7 S 9 15 5 8 1028.4 - 0.0
22/10:50am 10.1 6.7 1.8 56 3.7 S 9 13 5 7 1028.5 - 0.0
22/10:40am 9.9 6.1 1.7 56 3.6 SSE 11 15 6 8 1028.5 - 0.0
22/10:30am 9.8 6.3 1.2 55 3.7 S 9 13 5 7 1028.5 - 0.0
22/10:20am 9.6 6.6 2.2 60 3.3 S 7 9 4 5 1028.4 - 0.0
22/10:10am 9.4 6.9 1.4 57 3.5 S 4 7 2 4 1028.5 - 0.0
22/10:00am 8.9 5.8 1.3 59 3.3 SW 7 11 4 6 1028.5 - 0.0
22/09:50am 8.6 5.5 1.1 59 3.2 SW 7 9 4 5 1028.5 - 0.0
22/09:40am 8.4 5.2 0.9 59 3.2 SW 7 9 4 5 1028.4 - 0.0
22/09:30am 8.3 5.7 1.1 60 3.1 WSW 4 7 2 4 1028.2 - 0.0
22/09:20am 7.9 4.9 0.5 59 3.1 SSE 6 7 3 4 1028.1 - 0.0
22/09:10am 7.7 4.5 0.9 62 2.9 WSW 7 13 4 7 1027.9 - 0.0
22/09:00am 7.9 5.2 0.3 58 3.2 NW 4 7 2 4 1027.9 - 0.0
22/08:50am 7.0 3.9 0.2 62 2.8 W 6 9 3 5 1027.7 - 0.0
22/08:30am 6.2 2.8 -0.4 62 2.7 SSW 7 9 4 5 1027.6 - 0.0
22/08:20am 6.1 2.9 -0.3 63 2.6 SSE 6 9 3 5 1027.5 - 0.0
22/08:00am 5.7 2.5 -0.7 63 2.6 SSE 6 7 3 4 1027.5 - 0.0
22/07:50am 5.5 3.0 -0.8 64 2.5 SSW 2 6 1 3 1027.5 - 0.0
22/07:40am 5.0 1.7 -1.4 63 2.5 S 6 11 3 6 1027.4 - 0.0
22/07:30am 4.4 0.9 -1.4 66 2.2 SSE 7 9 4 5 1027.2 - 0.0
22/07:20am 4.7 1.2 -1.1 66 2.3 ESE 7 9 4 5 1026.9 - 0.0
22/07:10am 4.2 0.9 -1.5 66 2.2 ESE 6 9 3 5 1026.8 - 0.0
22/07:00am 4.5 1.2 -1.3 66 2.3 SSE 6 11 3 6 1026.6 - 0.0
22/06:50am 4.3 1.3 -1.6 65 2.3 SSW 4 7 2 4 1026.6 - 0.0
22/06:40am 3.9 0.6 -1.4 68 2.0 S 6 7 3 4 1026.4 - 0.0
22/06:30am 3.8 -0.1 -1.2 70 1.9 S 9 9 5 5 1026.2 - 0.0
22/06:20am 4.0 0.2 -1.0 70 1.9 S 9 9 5 5 1026.1 - 0.0
22/06:10am 4.0 0.5 -1.1 69 2.0 S 7 7 4 4 1026.0 - 0.0
22/06:00am 4.0 1.2 -0.6 72 1.8 S 4 6 2 3 1025.9 - 0.0
22/05:50am 4.0 1.6 -0.4 73 1.7 SW 2 4 1 2 1026.0 - 0.0
22/05:40am 4.1 1.7 -0.4 72 1.8 S 2 6 1 3 1025.8 - 0.0
22/05:30am 4.3 1.9 -0.4 71 1.9 WNW 2 6 1 3 1025.7 - 0.0
22/05:20am 4.2 1.8 -0.5 71 1.9 S 2 4 1 2 1025.6 - 0.0
22/05:10am 4.0 1.6 -0.5 72 1.8 SSE 2 6 1 3 1025.5 - 0.0
22/05:00am 4.1 1.0 -0.1 74 1.7 SSE 6 9 3 5 1025.5 - 0.0
22/04:50am 4.1 1.0 0.0 74 1.6 S 6 7 3 4 1025.5 - 0.0
22/04:40am 4.2 1.5 0.0 74 1.7 SSE 4 7 2 4 1025.3 - 0.0
22/04:30am 4.2 1.9 0.2 75 1.6 SE 2 4 1 2 1025.4 - 0.0
22/04:20am 4.3 2.3 0.2 75 1.7 CALM 0 2 0 1 1025.5 - 0.0
22/04:10am 4.5 1.8 0.1 73 1.8 SSW 4 6 2 3 1025.4 - 0.0
22/03:50am 4.6 1.3 0.2 73 1.8 W 7 9 4 5 1025.5 - 0.0
22/03:30am 4.3 1.6 0.4 76 1.6 NNW 4 7 2 4 1025.4 - 0.0
22/03:20am 4.3 1.9 0.0 73 1.7 NNW 2 6 1 3 1025.3 - 0.0
22/03:10am 4.2 1.5 0.2 75 1.6 NNE 4 6 2 3 1025.3 - 0.0
22/03:00am 4.2 1.1 0.2 75 1.6 N 6 6 3 3 1025.4 - 0.0
22/02:50am 4.0 1.3 0.0 75 1.6 NNW 4 7 2 4 1025.3 - 0.0
22/02:40am 4.2 1.1 0.0 74 1.7 NNE 6 6 3 3 1025.4 - 0.0
22/02:30am 4.0 1.6 -0.1 74 1.6 NE 2 6 1 3 1025.4 - 0.0
22/02:20am 3.9 0.8 0.2 77 1.5 S 6 7 3 4 1025.4 - 0.0
22/02:10am 4.0 1.3 0.1 76 1.6 SSE 4 7 2 4 1025.4 - 0.0
22/02:00am 4.2 1.1 0.2 75 1.6 S 6 7 3 4 1025.4 - 0.0
22/01:50am 4.1 0.4 0.2 76 1.6 S 9 13 5 7 1025.4 - 0.0
22/01:40am 4.1 0.8 0.2 76 1.6 SE 7 9 4 5 1025.2 - 0.0
22/01:30am 4.0 0.8 -0.2 74 1.7 S 6 7 3 4 1025.1 - 0.0
22/01:20am 3.5 1.5 0.2 79 1.3 CALM 0 2 0 1 1025.0 - 0.0
22/01:10am 3.5 1.2 0.6 81 1.2 WSW 2 4 1 2 1024.9 - 0.0
22/01:00am 3.6 1.3 0.7 81 1.2 NW 2 4 1 2 1024.9 - 0.0
22/12:50am 3.7 1.4 0.5 79 1.3 N 2 6 1 3 1024.8 - 0.0
22/12:40am 4.0 1.6 -0.2 74 1.7 NE 2 4 1 2 1024.9 - 0.0
22/12:30am 4.1 1.7 -0.5 72 1.8 SSE 2 6 1 3 1024.8 - 0.0
22/12:20am 4.0 1.6 -0.3 73 1.7 SSW 2 7 1 4 1025.0 - 0.0
22/12:10am 3.8 1.0 -0.2 75 1.6 S 4 6 2 3 1025.0 - 0.0
22/12:00am 3.8 1.4 -0.1 76 1.6 S 2 4 1 2 1024.9 - 0.0
 
Date/Time
EST
Temp
°C
App
Temp
°C
Dew
Point
°C
Rel
Hum
%
Delta-T
°C
Wind Press
QNH
hPa
Press
MSL
hPa
Rain since
9am
mm
Dir  Spd
km/h
Gust
km/h
Spd
kts
Gust
kts
21/11:50pm 3.8 1.5 0.1 77 1.5 NNE 2 4 1 2 1024.8 - 0.0
21/11:40pm 3.9 1.6 0.3 77 1.4 NNW 2 6 1 3 1024.7 - 0.0
21/11:30pm 4.2 1.9 0.3 76 1.6 WSW 2 4 1 2 1024.7 - 0.0
21/11:20pm 4.3 1.9 0.0 73 1.7 SSW 2 6 1 3 1024.7 - 0.0
21/11:10pm 4.3 1.9 -0.6 70 1.9 ESE 2 4 1 2 1024.8 - 0.0
21/11:00pm 4.1 1.3 -0.6 71 1.9 SE 4 7 2 4 1024.6 - 0.0
21/10:50pm 3.9 1.5 0.0 76 1.6 NNW 2 4 1 2 1024.6 - 0.0
21/10:40pm 3.7 1.4 0.6 80 1.3 W 2 4 1 2 1024.5 - 0.0
21/10:30pm 3.9 1.3 0.7 80 1.3 S 4 7 2 4 1024.5 - 0.0
21/10:20pm 4.7 1.4 0.1 72 1.9 S 7 11 4 6 1024.3 - 0.0
21/10:10pm 4.5 1.3 -0.7 69 2.1 S 6 11 3 6 1024.2 - 0.0
21/10:00pm 4.3 2.0 0.5 76 1.5 N 2 6 1 3 1024.1 - 0.0
21/09:50pm 4.5 2.2 0.5 75 1.6 W 2 6 1 3 1024.0 - 0.0
21/09:40pm 4.6 2.3 0.4 74 1.7 NNW 2 6 1 3 1023.9 - 0.0
21/09:30pm 5.1 1.8 0.1 70 2.0 S 7 9 4 5 1023.8 - 0.0
21/09:20pm 5.3 1.6 0.1 69 2.1 SSE 9 11 5 6 1023.8 - 0.0
21/09:10pm 5.2 0.8 0.1 69 2.1 SE 13 15 7 8 1023.7 - 0.0
21/09:00pm 5.1 1.5 0.7 73 1.8 SSE 9 17 5 9 1023.7 - 0.0
21/08:50pm 4.9 1.8 0.0 70 2.0 S 6 9 3 5 1023.7 - 0.0
21/08:40pm 3.7 0.8 1.5 85 0.9 S 6 11 3 6 1023.7 - 0.0
21/08:30pm 3.7 1.6 1.5 85 0.9 SSE 2 6 1 3 1023.5 - 0.0
21/08:20pm 3.6 1.6 2.5 92 0.5 ESE 2 4 1 2 1023.3 - 0.0
21/08:10pm 3.5 1.2 2.7 94 0.3 SE 4 6 2 3 1023.3 - 0.0
21/08:00pm 3.7 1.4 2.7 93 0.4 S 4 7 2 4 1023.3 - 0.0
21/07:50pm 3.8 1.1 2.8 93 0.4 SW 6 7 3 4 1023.2 - 0.0
21/07:40pm 4.4 2.2 3.3 93 0.5 SSW 4 7 2 4 1023.1 - 0.0
21/07:30pm 5.0 3.2 3.5 90 0.7 NW 2 4 1 2 1022.9 - 0.0
21/07:20pm 5.5 3.0 3.7 88 0.8 WSW 6 6 3 3 1022.8 - 0.0
21/07:10pm 5.9 3.2 2.4 78 1.5 S 6 9 3 5 1022.6 - 0.0
21/06:50pm 6.1 3.5 3.0 80 1.4 SSE 6 7 3 4 1022.4 - 0.0
21/06:20pm 6.3 4.1 3.6 83 1.2 S 4 4 2 2 1022.3 - 0.0
21/06:10pm 6.6 4.0 3.1 78 1.5 ESE 6 9 3 5 1022.1 - 0.0
21/06:00pm 6.6 3.7 2.6 75 1.7 SE 7 9 4 5 1022.0 - 0.0
21/05:40pm 6.8 4.5 4.8 87 0.9 S 6 7 3 4 1021.8 - 0.0
21/05:20pm 6.9 4.6 4.9 87 0.9 S 6 7 3 4 1021.5 - 0.0
21/05:10pm 6.9 5.4 5.0 88 0.9 S 2 4 1 2 1021.3 - 0.0
21/05:00pm 7.1 5.6 5.1 87 0.9 SSW 2 4 1 2 1021.1 - 0.0
21/04:50pm 7.4 5.8 4.5 82 1.3 N 2 4 1 2 1021.0 - 0.0
21/04:40pm 7.8 5.8 4.3 78 1.6 NNE 4 6 2 3 1020.8 - 0.0
21/04:20pm 8.4 6.0 4.1 74 2.0 NNE 6 7 3 4 1020.6 - 0.0
21/04:10pm 8.7 6.1 4.0 72 2.2 NNE 7 9 4 5 1020.4 - 0.0
21/04:00pm 7.7 4.7 4.0 77 1.7 NNE 9 9 5 5 1020.3 - 0.0
21/03:50pm 8.0 5.4 4.3 77 1.7 NNE 7 9 4 5 1020.1 - 0.0
21/03:40pm 9.0 6.5 4.5 73 2.1 N 7 9 4 5 1020.0 - 0.0
21/03:30pm 9.7 7.4 4.8 71 2.3 N 6 7 3 4 1019.8 - 0.0
21/03:20pm 9.5 7.0 4.9 73 2.2 N 7 11 4 6 1019.8 - 0.0
21/03:10pm 9.6 7.1 4.7 71 2.3 N 7 9 4 5 1019.7 - 0.0
21/03:00pm 9.5 7.9 4.7 72 2.3 N 2 4 1 2 1019.8 - 0.0
21/02:50pm 9.0 7.5 4.8 75 2.0 WSW 2 4 1 2 1019.8 - 0.0
21/02:40pm 8.8 7.3 5.0 77 1.8 SW 2 4 1 2 1019.8 - 0.0
21/02:30pm 8.1 6.6 5.0 81 1.5 WNW 2 2 1 1 1019.7 - 0.0
21/02:20pm 8.1 6.2 4.7 79 1.6 WNW 4 4 2 2 1019.7 - 0.0
21/02:10pm 8.3 7.1 4.6 77 1.7 CALM 0 2 0 1 1019.7 - 0.0
21/02:00pm 8.3 7.1 4.5 77 1.8 CALM 0 0 0 0 1019.6 - 0.0
21/01:50pm 8.5 6.9 4.3 75 1.9 NW 2 4 1 2 1019.6 - 0.0
21/01:40pm 8.7 7.4 4.3 74 2.0 CALM 0 4 0 2 1019.5 - 0.0
21/01:30pm 8.8 7.2 4.5 74 2.0 NNW 2 6 1 3 1019.5 - 0.0
21/01:20pm 8.7 6.7 4.5 75 2.0 N 4 6 2 3 1019.5 - 0.0
21/01:10pm 8.5 6.4 4.0 73 2.1 N 4 6 2 3 1019.5 - 0.0
21/01:00pm 8.2 5.8 4.2 76 1.8 N 6 9 3 5 1019.5 - 0.0
21/12:50pm 8.6 6.2 4.4 75 1.9 N 6 7 3 4 1019.6 - 0.0
21/12:40pm 9.5 7.2 4.7 72 2.3 N 6 9 3 5 1019.6 - 0.0
21/12:30pm 10.7 8.3 5.2 69 2.6 N 7 13 4 7 1019.6 - 0.0
21/12:20pm 10.4 8.2 6.1 75 2.1 NW 7 9 4 5 1019.6 - 0.0
21/12:10pm 11.0 8.9 5.9 71 2.5 NNW 6 11 3 6 1019.5 - 0.0
21/12:00pm 11.3 9.3 6.3 71 2.5 N 6 9 3 5 1019.5 - 0.0
21/11:50am 10.9 8.8 5.8 71 2.5 NW 6 9 3 5 1019.5 - 0.0
21/11:40am 10.3 8.0 5.5 72 2.3 N 7 7 4 4 1019.7 - 0.0
21/11:30am 9.2 6.8 5.3 76 1.9 N 7 11 4 6 1019.8 - 0.0
21/11:20am 9.4 6.6 5.3 75 2.0 N 9 13 5 7 1019.9 - 0.0
21/11:10am 9.4 7.0 5.4 76 1.9 N 7 9 4 5 1020.1 - 0.0
21/11:00am 8.6 6.3 5.7 82 1.4 N 7 9 4 5 1020.1 - 0.0
21/10:50am 8.0 5.9 6.0 87 1.0 N 6 9 3 5 1020.2 - 0.0
21/10:40am 7.1 5.3 5.4 89 0.8 N 4 6 2 3 1020.2 - 0.0
21/10:30am 6.6 5.1 5.2 91 0.7 NW 2 4 1 2 1020.3 - 0.0
21/10:20am 6.3 5.1 4.6 89 0.8 CALM 0 0 0 0 1020.2 - 0.0
21/10:10am 5.6 4.4 4.4 92 0.5 CALM 0 2 0 1 1020.2 - 0.0
21/10:00am 5.9 4.7 4.8 93 0.5 CALM 0 2 0 1 1020.3 - 0.0
21/09:50am 5.9 4.4 4.8 93 0.5 NNW 2 4 1 2 1020.2 - 0.0
21/09:40am 5.8 4.6 4.6 92 0.5 CALM 0 4 0 2 1020.2 - 0.0
21/09:30am 5.8 4.5 4.3 90 0.7 CALM 0 2 0 1 1020.1 - 0.0
21/09:20am 5.6 4.3 4.0 89 0.7 CALM 0 0 0 0 1020.0 - 0.0
21/09:10am 5.5 4.2 4.3 92 0.5 CALM 0 0 0 0 1020.0 - 0.0
21/09:00am 5.3 4.0 3.9 91 0.6 CALM 0 0 0 0 1019.9 - 3.8
21/08:50am 4.9 3.5 3.5 91 0.6 CALM 0 2 0 1 1019.8 - 3.8
21/08:30am 4.1 1.5 3.4 95 0.3 SSE 6 7 3 4 1019.6 - 3.8
21/08:20am 3.9 1.3 3.3 96 0.3 SSE 6 7 3 4 1019.5 - 3.8
21/08:10am 3.6 1.0 3.1 97 0.2 SSE 6 6 3 3 1019.3 - 3.8
21/08:00am 3.5 0.9 3.0 97 0.2 S 6 6 3 3 1019.3 - 3.8
21/07:50am 3.3 0.6 2.9 97 0.2 S 6 6 3 3 1019.3 - 3.8
21/07:40am 3.2 0.9 2.7 96 0.2 S 4 4 2 2 1019.2 - 3.8
21/07:30am 3.1 1.2 2.7 97 0.2 S 2 4 1 2 1019.0 - 3.8
21/07:20am 3.2 1.3 2.7 96 0.2 SSW 2 2 1 1 1018.9 - 3.8
21/07:00am 3.3 1.4 2.8 96 0.2 S 2 4 1 2 1018.5 - 3.8
21/06:50am 3.2 1.3 2.7 96 0.2 SSE 2 4 1 2 1018.4 - 3.8
21/06:40am 3.2 1.6 2.7 96 0.2 CALM 0 0 0 0 1018.2 - 3.8
21/06:30am 3.3 1.7 2.7 96 0.3 CALM 0 0 0 0 1018.1 - 3.8
21/06:20am 3.4 1.9 2.8 96 0.3 CALM 0 0 0 0 1018.0 - 3.8
21/06:10am 3.6 2.1 2.9 95 0.3 CALM 0 0 0 0 1017.8 - 3.8
21/06:00am 3.6 2.1 3.0 96 0.3 CALM 0 0 0 0 1017.7 - 3.8
21/05:50am 3.7 2.2 3.0 95 0.3 CALM 0 0 0 0 1017.6 - 3.8
21/05:40am 3.7 2.2 3.0 95 0.3 CALM 0 0 0 0 1017.5 - 3.8
21/05:30am 3.8 2.3 2.9 94 0.4 CALM 0 0 0 0 1017.4 - 3.8
21/05:20am 4.0 2.1 3.0 93 0.4 SSE 2 6 1 3 1017.4 - 3.8
21/05:10am 4.5 2.2 3.0 90 0.6 NW 4 6 2 3 1017.3 - 3.8
21/05:00am 4.6 2.9 2.1 84 1.1 CALM 0 2 0 1 1017.3 - 3.8
21/04:50am 4.6 2.2 2.1 84 1.1 SSE 4 4 2 2 1017.3 - 3.8
21/04:40am 4.4 2.0 2.1 85 1.0 S 4 4 2 2 1017.2 - 3.8
21/04:30am 4.3 2.7 2.5 88 0.8 CALM 0 0 0 0 1017.1 - 3.8
21/04:20am 4.3 2.7 2.5 88 0.8 CALM 0 0 0 0 1017.0 - 3.8
21/04:10am 4.3 2.3 2.5 88 0.8 SSW 2 4 1 2 1017.0 - 3.8
21/04:00am 4.3 2.3 2.5 88 0.8 SSW 2 4 1 2 1017.0 - 3.8
21/03:50am 4.5 2.5 2.5 87 0.9 SSW 2 4 1 2 1017.0 - 3.8
21/03:40am 4.3 2.2 1.8 84 1.0 SSE 2 4 1 2 1016.9 - 3.8
21/03:30am 4.3 2.7 2.4 87 0.8 CALM 0 0 0 0 1016.8 - 3.8
21/03:20am 4.2 2.2 2.2 87 0.8 S 2 4 1 2 1016.9 - 3.8
21/03:10am 4.2 2.2 2.4 88 0.8 SSW 2 4 1 2 1016.8 - 3.8
21/03:00am 4.1 2.1 2.2 87 0.8 SSW 2 4 1 2 1017.0 - 3.8
21/02:50am 4.0 2.1 2.7 91 0.6 SSW 2 4 1 2 1017.0 - 3.8
21/02:40am 4.3 2.4 2.8 90 0.6 SE 2 4 1 2 1017.0 - 3.8
21/02:30am 4.3 1.9 2.1 86 0.9 S 4 4 2 2 1016.9 - 3.8
21/02:20am 4.2 1.8 2.3 87 0.8 SSE 4 6 2 3 1016.8 - 3.8
21/02:10am 4.2 1.4 2.3 87 0.8 SSE 6 6 3 3 1016.8 - 3.8
21/02:00am 4.2 1.8 2.2 87 0.8 S 4 6 2 3 1016.8 - 3.8
21/01:40am 3.9 2.3 2.7 92 0.5 CALM 0 2 0 1 1016.8 - 3.8
21/01:30am 4.1 2.5 2.7 91 0.6 CALM 0 2 0 1 1016.9 - 3.8
21/01:20am 4.1 2.4 2.1 87 0.8 CALM 0 2 0 1 1016.8 - 3.8
21/01:10am 4.1 1.8 2.5 89 0.7 SE 4 6 2 3 1016.8 - 3.8
21/01:00am 4.0 2.0 2.3 89 0.7 SSE 2 2 1 1 1016.9 - 3.8
21/12:50am 3.9 1.6 2.6 91 0.6 S 4 6 2 3 1016.9 - 3.8
21/12:40am 3.8 2.2 2.6 92 0.5 CALM 0 4 0 2 1016.9 - 3.8
21/12:30am 3.7 2.1 2.7 93 0.4 CALM 0 2 0 1 1017.1 - 3.8
21/12:20am 3.8 1.5 2.7 92 0.5 S 4 7 2 4 1017.1 - 3.8
21/12:10am 3.6 0.9 2.8 94 0.3 SSE 6 7 3 4 1017.2 - 3.8
21/12:00am 3.6 1.3 2.8 94 0.3 S 4 6 2 3 1017.3 - 3.8
 
Date/Time
EST
Temp
°C
App
Temp
°C
Dew
Point
°C
Rel
Hum
%
Delta-T
°C
Wind Press
QNH
hPa
Press
MSL
hPa
Rain since
9am
mm
Dir  Spd
km/h
Gust
km/h
Spd
kts
Gust
kts
20/11:50pm 3.6 1.7 2.9 95 0.3 SSW 2 4 1 2 1017.3 - 3.8
20/11:30pm 3.5 1.6 2.7 94 0.3 ENE 2 4 1 2 1017.4 - 3.8
20/11:20pm 3.6 2.0 2.6 93 0.4 CALM 0 0 0 0 1017.4 - 3.8
20/11:10pm 3.8 1.9 2.8 93 0.4 SSW 2 4 1 2 1017.4 - 3.8
20/11:00pm 4.1 1.8 2.5 89 0.7 ESE 4 4 2 2 1017.4 - 3.8
20/10:50pm 3.9 1.2 2.7 92 0.5 E 6 7 3 4 1017.5 - 3.8
20/10:40pm 3.8 1.1 2.6 92 0.5 SE 6 9 3 5 1017.5 - 3.8
20/10:30pm 3.7 1.3 2.3 91 0.6 WSW 4 7 2 4 1017.6 - 3.8
20/10:20pm 3.6 0.7 2.4 92 0.5 S 7 11 4 6 1017.5 - 3.8
20/10:10pm 3.4 -0.7 2.3 92 0.5 SSW 13 17 7 9 1017.5 - 3.8
20/10:00pm 3.5 -2.3 2.3 92 0.5 S 22 26 12 14 1017.4 - 3.8
20/09:50pm 3.5 -1.7 2.4 92 0.5 S 19 22 10 12 1017.4 - 3.8
20/09:40pm 3.6 -1.3 2.2 90 0.6 S 17 20 9 11 1017.7 - 3.6
20/09:30pm 3.8 -1.4 2.5 91 0.6 S 19 22 10 12 1018.0 - 3.2
20/09:20pm 4.0 0.0 2.9 92 0.5 S 13 17 7 9 1018.3 - 2.6
20/09:10pm 4.2 0.6 2.8 91 0.6 S 11 13 6 7 1018.3 - 1.8
20/09:00pm 4.3 1.1 2.8 90 0.6 S 9 11 5 6 1018.3 - 1.2
20/08:50pm 4.4 1.2 2.8 89 0.7 S 9 11 5 6 1018.3 - 0.8
20/08:40pm 4.6 2.3 2.6 87 0.9 S 4 6 2 3 1018.4 - 0.4
20/08:30pm 4.7 2.3 2.1 83 1.1 SSW 4 6 2 3 1018.3 - 0.2
20/08:20pm 4.8 2.8 2.2 83 1.1 SW 2 6 1 3 1018.2 - 0.0
20/08:10pm 5.1 2.7 2.0 80 1.3 NW 4 6 2 3 1018.1 - 0.0
20/08:00pm 5.7 3.3 2.0 77 1.6 WSW 4 7 2 4 1017.9 - 0.0
20/07:50pm 5.6 2.6 0.7 71 2.0 SSE 6 7 3 4 1017.8 - 0.0
20/07:40pm 4.6 2.5 1.8 82 1.2 E 2 6 1 3 1017.7 - 0.0
20/07:20pm 4.4 2.3 1.7 82 1.1 S 2 4 1 2 1017.8 - 0.0
20/07:10pm 4.3 1.8 1.6 82 1.1 SSW 4 7 2 4 1017.6 - 0.0
20/07:00pm 4.2 2.1 1.4 82 1.2 S 2 4 1 2 1017.7 - 0.0
20/06:50pm 4.1 2.0 1.5 83 1.1 SE 2 4 1 2 1017.5 - 0.0
20/06:40pm 4.1 2.3 1.5 83 1.1 CALM 0 2 0 1 1017.3 - 0.0
20/06:30pm 4.0 2.2 1.4 83 1.1 CALM 0 2 0 1 1017.2 - 0.0
20/06:20pm 3.9 2.1 1.4 84 1.0 CALM 0 4 0 2 1017.0 - 0.0
20/06:10pm 3.9 2.2 1.6 85 1.0 CALM 0 2 0 1 1016.8 - 0.0
20/06:00pm 4.1 2.0 1.5 83 1.1 W 2 6 1 3 1016.8 - 0.0
20/05:50pm 4.0 1.9 1.4 83 1.1 ENE 2 4 1 2 1016.5 - 0.0
20/05:40pm 3.8 1.7 1.4 84 1.0 SSE 2 2 1 1 1016.6 - 0.0
20/05:30pm 3.5 1.7 1.5 87 0.8 CALM 0 2 0 1 1016.6 - 0.0
20/05:20pm 3.6 1.1 1.6 87 0.8 N 4 9 2 5 1016.4 - 0.0
20/05:10pm 4.2 1.7 1.6 83 1.1 S 4 6 2 3 1016.4 - 0.0
20/05:00pm 4.4 2.3 1.8 83 1.1 S 2 4 1 2 1016.3 - 0.0
20/04:50pm 4.9 3.2 1.8 80 1.3 CALM 0 4 0 2 1016.2 - 0.0
20/04:40pm 5.4 3.3 2.0 79 1.4 SSE 2 4 1 2 1016.2 - 0.0
20/04:30pm 6.5 4.6 2.6 76 1.7 SW 2 4 1 2 1016.3 - 0.0
20/04:20pm 8.0 6.5 2.8 70 2.3 CALM 0 4 0 2 1016.4 - 0.0
20/04:10pm 8.8 6.8 2.5 64 2.8 WNW 2 4 1 2 1016.3 - 0.0
20/04:00pm 9.0 6.9 2.0 61 3.1 WNW 2 4 1 2 1016.3 - 0.0
20/03:50pm 9.3 7.0 2.6 63 3.0 NW 4 6 2 3 1016.3 - 0.0
20/03:40pm 9.3 6.9 2.3 61 3.1 NW 4 6 2 3 1016.2 - 0.0
20/03:30pm 9.4 6.6 2.0 60 3.3 NW 6 9 3 5 1016.3 - 0.0
20/03:20pm 8.6 5.7 1.5 61 3.1 N 6 9 3 5 1016.3 - 0.0
20/03:10pm 8.3 5.2 1.5 62 2.9 N 7 9 4 5 1016.3 - 0.0
20/03:00pm 8.1 5.1 2.0 65 2.7 N 7 9 4 5 1016.3 - 0.0
20/02:50pm 8.1 5.1 1.8 64 2.7 N 7 11 4 6 1016.4 - 0.0
20/02:40pm 8.2 4.8 1.9 64 2.7 N 9 11 5 6 1016.4 - 0.0
20/02:30pm 8.1 4.0 2.0 65 2.7 N 13 15 7 8 1016.3 - 0.0
20/02:20pm 8.7 4.9 1.7 61 3.1 NNE 11 15 6 8 1016.2 - 0.0
20/02:00pm 9.3 5.4 1.4 58 3.4 N 11 13 6 7 1016.3 - 0.0
20/01:50pm 9.3 5.8 1.3 57 3.5 N 9 11 5 6 1016.3 - 0.0
20/01:40pm 9.8 6.3 1.5 56 3.6 N 9 11 5 6 1016.2 - 0.0
20/01:30pm 10.0 6.9 1.4 55 3.8 N 7 11 4 6 1016.3 - 0.0
20/01:20pm 9.8 6.8 0.9 54 3.9 N 6 11 3 6 1016.3 - 0.0
20/01:10pm 9.7 6.7 0.6 53 3.9 NNW 6 9 3 5 1016.4 - 0.0
20/01:00pm 9.2 6.2 1.0 56 3.5 NNW 6 9 3 5 1016.4 - 0.0
20/12:50pm 9.1 5.9 0.5 55 3.7 N 7 11 4 6 1016.6 - 0.0
20/12:30pm 8.3 5.2 0.1 56 3.4 NNW 6 7 3 4 1016.9 - 0.0
20/12:20pm 7.8 5.5 0.2 58 3.2 NW 2 6 1 3 1017.0 - 0.0
20/12:10pm 7.8 5.1 0.1 58 3.2 NW 4 6 2 3 1017.2 - 0.0
20/12:00pm 7.4 4.7 0.5 61 2.9 NNW 4 6 2 3 1017.3 - 0.0
20/11:50am 7.1 4.0 -0.1 60 3.0 N 6 9 3 5 1017.6 - 0.0
20/11:40am 6.9 3.8 0.4 63 2.7 N 6 7 3 4 1017.7 - 0.0
20/11:30am 6.6 3.5 0.0 63 2.7 N 6 7 3 4 1017.9 - 0.0
20/11:20am 5.4 2.7 0.5 71 2.0 NW 4 7 2 4 1018.0 - 0.0
20/11:00am 4.0 1.4 0.9 80 1.3 WNW 4 7 2 4 1018.3 - 0.0
20/10:50am 3.7 0.8 1.2 84 1.0 NNW 6 9 3 5 1018.3 - 0.0
20/10:40am 3.0 0.4 1.0 87 0.8 NNW 4 9 2 5 1018.3 - 0.0
20/10:30am 2.6 0.0 0.9 88 0.7 NW 4 6 2 3 1018.4 - 0.0
20/10:20am 2.4 -0.2 1.2 92 0.5 N 4 6 2 3 1018.4 - 0.0
20/10:10am 1.4 -0.9 0.2 92 0.5 WSW 2 4 1 2 1018.3 - 0.0
20/10:00am 1.5 -0.8 0.2 91 0.5 SSW 2 4 1 2 1018.5 - 0.0
20/09:50am 1.6 -0.7 0.4 92 0.5 NNW 2 4 1 2 1018.6 - 0.0
20/09:40am 1.2 -1.5 0.2 93 0.4 N 4 7 2 4 1018.5 - 0.0
20/09:30am 1.0 -1.4 0.0 93 0.4 N 2 7 1 4 1018.6 - 0.0
20/09:20am 0.2 -1.9 -0.9 92 0.4 CALM 0 2 0 1 1018.4 - 0.0
20/09:10am -0.2 -2.7 -1.3 92 0.4 N 2 4 1 2 1018.3 - 0.0
20/09:00am -0.9 -3.6 -2.1 92 0.4 S 2 6 1 3 1018.2 - 0.0
20/08:40am -1.5 -3.8 -2.6 92 0.3 CALM 0 2 0 1 1018.1 - 0.0
20/08:30am -2.5 -5.0 -3.6 92 0.3 CALM 0 2 0 1 1018.0 - 0.0
20/08:20am -3.2 -6.1 -4.3 92 0.2 SSW 2 4 1 2 1018.0 - 0.0
20/08:10am -3.2 -5.7 -4.2 93 0.2 CALM 0 4 0 2 1017.8 - 0.0
20/08:00am -3.6 -6.2 -4.5 93 0.1 CALM 0 2 0 1 1017.7 - 0.0
20/07:50am -3.9 -6.5 -4.7 94 0.1 CALM 0 2 0 1 1017.7 - 0.0
20/07:40am -4.1 -7.1 -4.9 94 0.1 N 2 6 1 3 1017.6 - 0.0
20/07:30am -4.3 -7.3 -5.1 94 0.1 N 2 4 1 2 1017.6 - 0.0
20/07:20am -4.2 -6.8 -5.0 94 0.1 CALM 0 2 0 1 1017.5 - 0.0
20/07:10am -4.0 -7.0 -4.8 94 0.1 E 2 4 1 2 1017.5 - 0.0
20/07:00am -4.1 -6.7 -4.8 95 0.1 CALM 0 0 0 0 1017.5 - 0.0
20/06:50am -3.9 -6.8 -4.6 95 0.1 NNE 2 4 1 2 1017.4 - 0.0
20/06:40am -4.0 -7.0 -4.7 95 0.1 NNE 2 4 1 2 1017.2 - 0.0
20/06:30am -3.8 -7.1 -4.4 96 0.0 NE 4 7 2 4 1017.2 - 0.0
20/06:20am -3.8 -7.1 -4.4 96 0.0 NNE 4 6 2 3 1017.1 - 0.0
20/06:10am -3.9 -6.5 -4.5 96 0.0 CALM 0 4 0 2 1017.1 - 0.0
20/06:00am -3.7 -6.2 -4.4 95 0.1 CALM 0 2 0 1 1017.0 - 0.0
20/05:50am -3.7 -6.2 -4.3 96 0.0 CALM 0 0 0 0 1017.1 - 0.0
20/05:40am -3.6 -6.5 -4.2 96 0.0 N 2 4 1 2 1017.1 - 0.0
20/05:30am -3.4 -5.9 -4.0 96 0.1 CALM 0 4 0 2 1016.9 - 0.0
20/05:20am -3.2 -6.1 -3.8 96 0.1 NNE 2 6 1 3 1016.8 - 0.0
20/05:10am -3.1 -6.7 -3.7 96 0.1 NE 6 6 3 3 1017.0 - 0.0
20/05:00am -2.9 -6.1 -3.4 96 0.0 NNE 4 6 2 3 1017.0 - 0.0
20/04:50am -2.8 -5.6 -3.3 96 0.0 NNE 2 4 1 2 1016.9 - 0.0
20/04:40am -2.8 -5.2 -3.3 96 0.0 CALM 0 2 0 1 1017.0 - 0.0
20/04:30am -2.6 -5.4 -3.1 96 0.1 NE 2 6 1 3 1017.1 - 0.0
20/04:20am -2.6 -5.8 -3.1 96 0.1 NE 4 6 2 3 1017.1 - 0.0
20/04:10am -2.4 -5.9 -2.9 96 0.1 NNE 6 7 3 4 1016.9 - 0.0
20/04:00am -2.0 -5.1 -2.5 96 0.1 SSW 4 6 2 3 1016.7 - 0.0
20/03:40am -1.6 -4.6 -2.1 96 0.1 S 4 6 2 3 1016.8 - 0.0
20/03:30am -1.5 -4.5 -2.0 96 0.1 SW 4 4 2 2 1017.0 - 0.0
20/03:20am -1.5 -4.1 -1.9 97 0.1 NE 2 4 1 2 1017.1 - 0.0
20/03:10am -1.4 -4.0 -1.8 97 0.1 NNE 2 4 1 2 1017.0 - 0.0
20/03:00am -1.3 -3.5 -1.7 97 0.1 CALM 0 4 0 2 1016.9 - 0.0
20/02:50am -1.0 -3.6 -1.5 96 0.1 SE 2 4 1 2 1016.9 - 0.0
20/02:40am -0.9 -3.4 -1.3 97 0.1 SE 2 4 1 2 1017.0 - 0.0
20/02:30am -0.9 -3.1 -1.4 96 0.1 CALM 0 2 0 1 1017.0 - 0.0
20/02:20am -0.9 -3.1 -1.4 96 0.1 CALM 0 2 0 1 1016.9 - 0.0
20/02:10am -0.9 -3.1 -1.4 96 0.1 CALM 0 2 0 1 1016.9 - 0.0
20/02:00am -0.9 -3.8 -1.4 96 0.1 NE 4 4 2 2 1016.9 - 0.0
20/01:50am -1.0 -4.0 -1.5 96 0.1 NE 4 6 2 3 1017.0 - 0.0
20/01:40am -0.7 -2.9 -1.2 96 0.2 CALM 0 2 0 1 1017.1 - 0.0
20/01:30am -0.5 -3.0 -1.0 96 0.2 - 2 4 1 2 1017.1 - 0.0
20/01:20am -0.3 -3.2 -0.8 96 0.2 SSE 4 6 2 3 1017.1 - 0.0
20/01:10am -0.2 -3.4 -0.7 96 0.2 SSE 6 6 3 3 1017.3 - 0.0
20/01:00am -0.1 -2.9 -0.7 96 0.2 SSE 4 6 2 3 1017.4 - 0.0
20/12:50am 0.0 -2.4 -0.6 96 0.2 - 2 4 1 2 1017.4 - 0.0
20/12:30am 0.0 -2.8 -0.6 96 0.2 NE 4 6 2 3 1017.5 - 0.0
20/12:20am -0.2 -3.1 -0.9 95 0.3 NNE 4 4 2 2 1017.4 - 0.0
20/12:10am 0.2 -2.2 -0.6 94 0.3 N 2 4 1 2 1017.5 - 0.0
20/12:00am 0.5 -2.7 -0.2 95 0.3 NE 6 6 3 3 1017.6 - 0.0
 
Date/Time
EST
Temp
°C
App
Temp
°C
Dew
Point
°C
Rel
Hum
%
Delta-T
°C
Wind Press
QNH
hPa
Press
MSL
hPa
Rain since
9am
mm
Dir  Spd
km/h
Gust
km/h
Spd
kts
Gust
kts
19/11:50pm 0.2 -1.9 -0.5 95 0.3 CALM 0 2 0 1 1017.8 - 0.0
19/11:40pm 0.3 -1.8 -0.5 94 0.3 CALM 0 2 0 1 1017.8 - 0.0
19/11:30pm 0.7 -1.7 -0.1 94 0.3 NNE 2 6 1 3 1017.7 - 0.0
19/11:20pm 0.9 -1.8 0.1 94 0.3 NNE 4 6 2 3 1017.7 - 0.0
19/11:10pm 0.8 -1.9 0.0 94 0.3 NNE 4 6 2 3 1017.6 - 0.0
19/11:00pm 0.7 -1.7 0.0 95 0.3 N 2 4 1 2 1017.6 - 0.0
19/10:50pm 0.8 -1.2 0.1 95 0.3 CALM 0 2 0 1 1017.6 - 0.0
19/10:40pm 0.8 -2.3 0.1 95 0.3 SSE 6 7 3 4 1017.5 - 0.0
19/10:30pm 0.9 -2.2 0.2 95 0.3 SSE 6 6 3 3 1017.5 - 0.0
19/10:20pm 1.0 -1.3 0.3 95 0.3 SSE 2 4 1 2 1017.6 - 0.0
19/10:10pm 0.8 -1.2 0.1 95 0.3 CALM 0 2 0 1 1017.6 - 0.0
19/10:00pm 0.8 -1.2 0.0 94 0.3 CALM 0 0 0 0 1017.5 - 0.0
19/09:50pm 1.1 -0.9 0.2 94 0.3 CALM 0 0 0 0 1017.5 - 0.0
19/09:40pm 1.3 -0.6 0.5 94 0.3 CALM 0 2 0 1 1017.4 - 0.0
19/09:30pm 1.3 -1.0 0.4 94 0.4 NE 2 4 1 2 1017.4 - 0.0
19/09:20pm 1.5 -0.8 0.4 92 0.4 N 2 4 1 2 1017.4 - 0.0
19/09:10pm 1.8 -0.8 0.7 92 0.4 NE 4 6 2 3 1017.4 - 0.0
19/09:00pm 1.5 -0.4 0.3 92 0.5 CALM 0 4 0 2 1017.4 - 0.0
19/08:50pm 1.5 -0.4 0.3 92 0.5 CALM 0 0 0 0 1017.4 - 0.0
19/08:40pm 1.5 -0.4 0.4 92 0.4 CALM 0 0 0 0 1017.2 - 0.0
19/08:30pm 1.5 -0.4 0.5 93 0.4 CALM 0 2 0 1 1017.2 - 0.0
19/08:20pm 1.5 -0.8 0.3 92 0.5 SE 2 4 1 2 1017.2 - 0.0
19/08:00pm 1.6 -0.3 0.3 91 0.5 CALM 0 0 0 0 1017.4 - 0.0
19/07:50pm 2.0 -0.3 0.4 89 0.6 N 2 4 1 2 1017.4 - 0.0
19/07:40pm 2.2 -0.5 0.6 89 0.6 NE 4 6 2 3 1017.2 - 0.0
19/07:30pm 2.1 -0.6 0.1 87 0.8 NNE 4 6 2 3 1017.0 - 0.0
19/07:20pm 2.1 0.1 0.0 86 0.8 CALM 0 0 0 0 1016.8 - 0.0
19/07:10pm 2.0 0.0 -0.1 86 0.8 CALM 0 2 0 1 1016.7 - 0.0
19/07:00pm 1.8 -0.2 0.0 88 0.7 CALM 0 0 0 0 1016.6 - 0.0
19/06:50pm 1.8 -0.6 0.0 88 0.7 S 2 4 1 2 1016.6 - 0.0
19/06:40pm 2.0 -0.3 0.1 87 0.7 W 2 4 1 2 1016.5 - 0.0
19/06:30pm 2.4 0.4 -0.1 83 1.0 CALM 0 2 0 1 1016.3 - 0.0
19/06:20pm 2.5 0.5 -0.1 83 1.0 CALM 0 0 0 0 1016.3 - 0.0
19/06:10pm 2.3 -0.1 0.0 85 0.9 NNE 2 4 1 2 1016.3 - 0.0
19/06:00pm 2.2 0.2 0.0 85 0.9 CALM 0 4 0 2 1016.3 - 0.0
19/05:50pm 2.2 -0.9 -0.1 85 0.9 SSE 6 11 3 6 1016.1 - 0.0
19/05:40pm 2.0 -1.6 0.3 88 0.7 SE 9 13 5 7 1016.1 - 0.0
19/05:30pm 2.4 -0.8 0.5 87 0.8 ENE 7 11 4 6 1016.2 - 0.0
19/05:20pm 2.4 -0.8 0.6 88 0.7 NNE 7 11 4 6 1016.2 - 0.0
19/05:10pm 2.6 0.3 0.6 87 0.8 SSW 2 4 1 2 1016.1 - 0.0
19/05:00pm 2.8 0.9 0.7 86 0.8 CALM 0 2 0 1 1016.0 - 0.0
19/04:50pm 3.2 0.9 0.7 84 1.0 W 2 4 1 2 1016.0 - 0.0
19/04:40pm 3.6 1.4 0.8 82 1.1 S 2 4 1 2 1015.9 - 0.0
19/04:30pm 4.4 1.9 1.6 82 1.2 SSW 4 4 2 2 1016.0 - 0.0
19/04:20pm 6.2 3.8 2.0 74 1.8 W 4 4 2 2 1016.2 - 0.0
19/04:10pm 6.3 4.3 -0.1 63 2.6 CALM 0 2 0 1 1016.1 - 0.0
19/04:00pm 5.8 3.4 -0.3 65 2.5 N 2 4 1 2 1016.2 - 0.0
19/03:50pm 5.4 2.1 0.4 70 2.0 N 7 9 4 5 1016.1 - 0.0
19/03:40pm 5.5 1.6 1.1 73 1.8 NNE 11 15 6 8 1016.0 - 0.0

Other formats

Comma delimited format used in spreadsheet applications
http://www.bom.gov.au/fwo/IDN60801/IDN60801.99762.axf

JavaScript Object Notation format (JSON) in row-major order
http://www.bom.gov.au/fwo/IDN60801/IDN60801.99762.json

Data quality

Most of these data are generated automatically and are frequently updated. Quality checks on data are not normally performed. It is possible for incorrect values to appear. Refer to information at About Latest Weather Observations and please check the disclaimer before using these data.